Time;durP1;ratioP1;P1;durP2;ratioP2;P2;SDS_P1;SDS_P2;PMS_P1;PMS_P2;Temp;Humidity;BMP_temperature;BMP_pressure;BME280_temperature;BME280_humidity;BME280_pressure;Samples;Min_cycle;Max_cycle;Signal;HPM_P1;HPM_P2
2023/03/07 00:03:42;;;;;;;20.17;18.17;;;;;;;0.75;100.00;98525.16;10584291;28;20035;-71
2023/03/07 00:08:43;;;;;;;18.33;16.63;;;;;;;0.80;100.00;98525.09;10573384;28;20475;-71
2023/03/07 00:13:45;;;;;;;19.83;17.95;;;;;;;0.67;100.00;98522.72;10591428;28;20050;-72
2023/03/07 00:18:48;;;;;;;20.90;18.90;;;;;;;0.71;100.00;98520.94;10591248;28;20114;-71
2023/03/07 00:23:51;;;;;;;20.55;18.52;;;;;;;0.89;100.00;98515.47;10591368;28;20401;-71
2023/03/07 00:28:54;;;;;;;17.10;15.60;;;;;;;1.06;100.00;98520.31;10591798;28;20050;-72
2023/03/07 00:33:56;;;;;;;20.08;18.15;;;;;;;1.06;100.00;98507.38;10571979;28;20040;-70
2023/03/07 00:38:58;;;;;;;20.08;17.98;;;;;;;1.05;100.00;98504.81;10572545;28;20409;-72
2023/03/07 00:43:59;;;;;;;19.15;17.25;;;;;;;0.94;100.00;98499.84;10590743;28;20489;-71
2023/03/07 00:49:01;;;;;;;19.27;17.35;;;;;;;1.00;100.00;98497.16;10589670;28;20044;-72
2023/03/07 00:54:03;;;;;;;18.42;16.83;;;;;;;0.92;100.00;98484.34;10589400;28;20396;-72
2023/03/07 00:59:05;;;;;;;19.05;17.25;;;;;;;0.88;100.00;98474.06;10571596;28;20048;-72
2023/03/07 01:04:07;;;;;;;20.25;17.85;;;;;;;0.69;100.00;98474.41;10589434;28;20046;-72
2023/03/07 01:09:09;;;;;;;18.45;16.77;;;;;;;0.70;100.00;98470.09;10589184;28;20043;-72
2023/03/07 01:14:11;;;;;;;19.83;17.98;;;;;;;0.78;100.00;98462.19;10570292;28;20044;-73
2023/03/07 01:19:13;;;;;;;20.30;18.33;;;;;;;0.78;100.00;98449.25;10586617;28;20048;-72
2023/03/07 01:24:15;;;;;;;18.45;16.20;;;;;;;0.97;100.00;98451.50;10590253;28;20119;-73
2023/03/07 01:29:17;;;;;;;19.48;17.67;;;;;;;1.04;99.45;98439.28;10570293;28;20085;-72
2023/03/07 01:34:19;;;;;;;21.75;18.20;;;;;;;1.16;97.87;98433.03;10570651;28;20051;-73
2023/03/07 01:39:21;;;;;;;21.00;19.10;;;;;;;1.06;98.71;98415.97;10589427;28;20146;-72
2023/03/07 01:45:04;;;;;;;21.48;18.88;;;;;;;1.13;98.51;98402.88;10571975;28;20091;-73
2023/03/07 01:50:18;;;;;;;20.95;18.88;;;;;;;1.29;96.65;98395.66;10569937;28;20412;-72
2023/03/07 01:55:28;;;;;;;20.05;18.25;;;;;;;1.31;95.81;98378.34;10586339;28;20043;-71
2023/03/07 02:00:37;;;;;;;19.48;17.67;;;;;;;1.19;96.64;98379.44;10568804;28;20047;-71
2023/03/07 02:05:46;;;;;;;19.83;18.05;;;;;;;1.39;94.48;98368.69;10585900;28;20090;-72
2023/03/07 02:10:48;;;;;;;21.17;19.30;;;;;;;1.25;95.69;98373.31;10586416;28;20043;-71
2023/03/07 02:15:50;;;;;;;19.80;18.10;;;;;;;1.28;95.06;98360.28;10567357;28;20043;-71
2023/03/07 02:20:58;;;;;;;20.20;18.23;;;;;;;1.37;93.53;98365.28;10567361;28;20048;-72
2023/03/07 02:26:18;;;;;;;21.08;18.98;;;;;;;1.27;94.53;98356.84;10568072;28;20089;-72
2023/03/07 02:31:20;;;;;;;20.35;18.60;;;;;;;1.22;94.70;98350.09;10566945;28;20081;-72
2023/03/07 02:36:27;;;;;;;18.98;17.33;;;;;;;1.15;95.17;98348.50;10585698;28;20115;-73
2023/03/07 02:42:03;;;;;;;19.55;17.85;;;;;;;1.26;94.07;98343.97;10583896;28;20528;-71
2023/03/07 02:47:15;;;;;;;20.95;18.92;;;;;;;1.44;91.99;98329.75;10569268;28;20040;-73
2023/03/07 02:52:18;;;;;;;19.50;17.77;;;;;;;1.55;91.43;98321.75;10566245;28;20089;-73
2023/03/07 02:57:19;;;;;;;18.67;17.08;;;;;;;1.39;92.11;98322.09;10567153;28;20050;-72
2023/03/07 03:02:21;;;;;;;18.60;17.02;;;;;;;1.38;91.67;98304.88;10566413;28;20046;-72
2023/03/07 03:07:23;;;;;;;18.00;16.50;;;;;;;1.32;91.33;98299.81;10585115;28;20105;-72
2023/03/07 03:12:25;;;;;;;19.45;17.73;;;;;;;1.22;91.79;98283.63;10585331;28;20058;-72
2023/03/07 03:17:26;;;;;;;20.05;18.35;;;;;;;1.29;91.28;98278.34;10566486;28;20051;-74
2023/03/07 03:22:28;;;;;;;17.98;16.27;;;;;;;1.10;90.82;98278.72;10565929;28;20150;-73
2023/03/07 03:27:31;;;;;;;16.67;15.27;;;;;;;1.21;88.45;98281.94;10564966;28;20055;-73
2023/03/07 03:32:35;;;;;;;17.25;15.85;;;;;;;1.19;87.60;98269.91;10565290;28;20115;-73
2023/03/07 03:37:38;;;;;;;16.65;15.32;;;;;;;1.12;86.91;98270.94;10564980;28;20052;-72
2023/03/07 03:42:41;;;;;;;15.38;14.07;;;;;;;1.24;84.74;98260.31;10555278;28;20563;-73
2023/03/07 03:47:43;;;;;;;15.27;13.88;;;;;;;1.29;84.96;98252.47;10573046;28;20135;-73
2023/03/07 03:52:45;;;;;;;15.73;14.40;;;;;;;1.33;83.64;98252.34;10573432;28;20093;-73
2023/03/07 03:57:47;;;;;;;14.95;13.68;;;;;;;1.39;82.95;98238.41;10590432;28;20051;-73
2023/03/07 04:02:49;;;;;;;14.95;13.68;;;;;;;1.38;82.02;98236.72;10574157;28;20143;-73
2023/03/07 04:07:52;;;;;;;14.55;13.30;;;;;;;1.50;81.18;98226.03;10573498;28;20097;-73
2023/03/07 04:12:54;;;;;;;14.80;13.52;;;;;;;1.23;82.76;98222.38;10590762;28;20044;-73
2023/03/07 04:17:56;;;;;;;13.52;12.35;;;;;;;1.13;83.45;98213.13;10570060;28;20044;-73
2023/03/07 04:22:58;;;;;;;15.27;13.77;;;;;;;1.14;83.55;98205.31;10569072;28;20397;-73
2023/03/07 04:28:00;;;;;;;15.32;13.93;;;;;;;1.36;81.36;98195.31;10587738;28;20066;-73
2023/03/07 04:33:02;;;;;;;14.20;12.90;;;;;;;1.30;80.79;98190.28;10568723;28;20051;-73
2023/03/07 04:38:04;;;;;;;14.05;12.85;;;;;;;1.24;80.28;98182.69;10568543;28;20074;-72
2023/03/07 04:43:06;;;;;;;15.45;14.05;;;;;;;1.15;81.37;98168.22;10568280;28;20043;-73
2023/03/07 04:48:08;;;;;;;13.90;12.43;;;;;;;1.21;80.86;98165.47;10568256;28;20101;-72
2023/03/07 04:53:10;;;;;;;14.13;12.82;;;;;;;1.23;80.47;98155.06;10567801;28;20050;-73
2023/03/07 04:58:13;;;;;;;16.98;13.30;;;;;;;1.22;81.59;98145.63;10568490;28;20075;-73
2023/03/07 05:03:15;;;;;;;13.27;12.07;;;;;;;1.11;81.18;98140.72;10551148;28;20059;-73
2023/03/07 05:08:19;;;;;;;13.65;12.15;;;;;;;1.39;79.03;98135.69;10567300;28;20054;-73
2023/03/07 05:13:21;;;;;;;12.60;11.50;;;;;;;1.50;77.72;98138.84;10566959;28;20044;-73
2023/03/07 05:18:24;;;;;;;13.25;11.90;;;;;;;1.62;77.54;98129.91;10526665;28;1210330;-72
2023/03/07 05:23:28;;;;;;;12.65;11.38;;;;;;;1.71;76.50;98131.41;10569319;28;20050;-73
2023/03/07 05:28:30;;;;;;;12.50;11.40;;;;;;;1.65;76.85;98116.91;10570995;28;20051;-73
2023/03/07 05:33:32;;;;;;;12.10;11.07;;;;;;;1.64;77.24;98114.34;10570115;28;20059;-71
2023/03/07 05:38:34;;;;;;;13.73;12.52;;;;;;;1.92;76.42;98107.53;10568742;28;20047;-72
2023/03/07 05:43:36;;;;;;;15.70;12.65;;;;;;;1.82;76.65;98106.09;10587912;28;20040;-72
2023/03/07 05:48:38;;;;;;;14.27;13.02;;;;;;;1.81;77.38;98106.97;10568933;28;20082;-72
2023/03/07 05:53:40;;;;;;;13.32;12.13;;;;;;;1.96;76.61;98109.16;10568654;28;20556;-71
2023/03/07 05:58:42;;;;;;;14.20;12.98;;;;;;;1.89;76.45;98110.19;10550820;28;20044;-71
2023/03/07 06:03:46;;;;;;;13.57;12.38;;;;;;;1.93;77.31;98106.63;10566780;28;20070;-71
2023/03/07 06:08:48;;;;;;;13.25;12.05;;;;;;;2.15;75.14;98111.22;10567227;28;20043;-72
2023/03/07 06:13:51;;;;;;;13.43;12.23;;;;;;;2.27;75.76;98113.47;10584685;28;20035;-72
2023/03/07 06:18:53;;;;;;;13.02;11.80;;;;;;;2.37;75.67;98116.63;10585108;28;20046;-72
2023/03/07 06:23:55;;;;;;;13.68;12.43;;;;;;;2.36;76.25;98112.34;10566539;28;20071;-72
2023/03/07 06:28:57;;;;;;;13.15;11.98;;;;;;;2.30;76.78;98110.75;10566148;28;20089;-73
2023/03/07 06:34:00;;;;;;;13.07;11.93;;;;;;;2.41;77.49;98107.88;10565215;28;20507;-72
2023/03/07 06:39:01;;;;;;;13.02;11.75;;;;;;;2.33;79.35;98113.25;10548267;28;20055;-72
2023/03/07 06:44:03;;;;;;;12.13;11.02;;;;;;;2.48;80.61;98112.84;10565128;28;20443;-71
2023/03/07 06:49:06;;;;;;;12.68;11.57;;;;;;;2.42;83.05;98105.22;10565127;28;20078;-71
2023/03/07 06:54:09;;;;;;;12.15;11.10;;;;;;;2.41;83.81;98100.94;10564913;28;20050;-71
2023/03/07 06:59:12;;;;;;;11.23;10.23;;;;;;;2.55;83.33;98102.25;10564704;28;20048;-71
2023/03/07 07:04:13;;;;;;;11.65;10.60;;;;;;;2.57;83.50;98090.97;10547955;28;20070;-71
2023/03/07 07:09:16;;;;;;;11.63;10.63;;;;;;;2.63;82.91;98095.09;10583235;28;20040;-70
2023/03/07 07:14:18;;;;;;;10.95;10.00;;;;;;;2.67;83.73;98094.09;10564862;28;20044;-72
2023/03/07 07:19:20;;;;;;;11.68;10.57;;;;;;;2.80;83.24;98098.03;10583112;28;20070;-72
2023/03/07 07:24:23;;;;;;;10.10;9.30;;;;;;;3.16;79.86;98097.72;10582119;28;20489;-71
2023/03/07 07:29:26;;;;;;;9.00;8.30;;;;;;;3.21;79.41;98099.28;10581076;28;20138;-71
2023/03/07 07:34:29;;;;;;;11.15;10.20;;;;;;;3.17;81.09;98095.06;10563445;28;20101;-71
2023/03/07 07:39:31;;;;;;;9.10;8.30;;;;;;;3.40;79.94;98104.69;10563678;28;20412;-72
2023/03/07 07:44:33;;;;;;;8.00;7.38;;;;;;;3.42;80.32;98099.47;10563472;28;20492;-71
2023/03/07 07:49:41;;;;;;;11.57;10.63;;;;;;;3.34;81.80;98112.69;10580732;28;20078;-71
2023/03/07 07:54:43;;;;;;;8.48;7.78;;;;;;;3.34;84.48;98107.50;10563800;28;20059;-72
2023/03/07 07:59:45;;;;;;;16.10;14.48;;;;;;;3.34;86.88;98101.47;10581835;28;20035;-72
2023/03/07 08:04:47;;;;;;;10.20;9.35;;;;;;;3.38;87.07;98109.09;10581488;28;20113;-72
2023/03/07 08:09:48;;;;;;;7.70;7.10;;;;;;;3.26;88.31;98104.31;10581253;28;20131;-72
2023/03/07 08:14:50;;;;;;;7.43;6.80;;;;;;;3.39;86.79;98099.56;10580896;28;20042;-72
2023/03/07 08:19:52;;;;;;;6.88;6.32;;;;;;;3.46;86.98;98095.88;10562820;28;20040;-72
2023/03/07 08:24:53;;;;;;;6.97;6.38;;;;;;;3.43;87.02;98089.00;10563299;28;20097;-72
2023/03/07 08:29:55;;;;;;;7.57;6.50;;;;;;;3.47;87.97;98085.41;10571912;28;20047;-72
2023/03/07 08:34:57;;;;;;;6.57;5.97;;;;;;;3.58;85.74;98077.25;10589392;28;20038;-72
2023/03/07 08:39:59;;;;;;;5.68;5.18;;;;;;;3.78;82.48;98068.75;10570945;28;20048;-72
2023/03/07 08:45:00;;;;;;;6.53;6.03;;;;;;;3.86;83.47;98069.34;10588375;28;20043;-72
2023/03/07 08:50:03;;;;;;;5.82;5.32;;;;;;;4.06;79.21;98076.38;10571047;28;20085;-73
2023/03/07 08:55:05;;;;;;;5.45;5.05;;;;;;;4.20;79.25;98083.69;10588187;28;20420;-72
2023/03/07 09:00:08;;;;;;;5.10;4.65;;;;;;;4.29;77.72;98088.53;10588520;28;20039;-72
2023/03/07 09:05:10;;;;;;;5.60;5.20;;;;;;;4.50;77.38;98097.28;10587718;28;20044;-73
2023/03/07 09:10:12;;;;;;;5.40;5.00;;;;;;;4.52;75.50;98088.53;10569425;28;20040;-72
2023/03/07 09:15:13;;;;;;;7.95;7.35;;;;;;;4.61;74.58;98089.09;10598991;22;20326;-73
2023/03/07 09:20:16;;;;;;;5.25;4.75;;;;;;;4.64;74.23;98086.34;10587424;28;20044;-72
2023/03/07 09:25:19;;;;;;;6.38;5.78;;;;;;;4.72;72.86;98084.28;10570387;27;20044;-71
2023/03/07 09:30:25;;;;;;;12.52;11.43;;;;;;;4.62;75.14;98073.41;10616727;27;20122;-71
2023/03/07 09:35:27;;;;;;;13.80;12.63;;;;;;;4.69;74.30;98061.84;10612918;27;20036;-71
2023/03/07 09:40:29;;;;;;;6.65;6.05;;;;;;;4.90;73.73;98057.53;10585034;28;20081;-72
2023/03/07 09:45:42;;;;;;;8.02;7.30;;;;;;;4.95;74.03;98057.34;10586143;28;20036;-72
2023/03/07 09:50:56;;;;;;;9.00;8.30;;;;;;;4.92;72.28;98039.25;10531294;28;20066;-72
2023/03/07 09:56:07;;;;;;;5.82;5.32;;;;;;;4.94;73.30;98048.69;10543450;28;20041;-72
2023/03/07 10:01:14;;;;;;;4.82;4.45;;;;;;;5.11;72.01;98036.75;10543567;28;20448;-71
2023/03/07 10:06:25;;;;;;;5.50;5.00;;;;;;;5.19;72.24;98034.66;10567975;28;20039;-71
2023/03/07 10:12:04;;;;;;;5.35;4.85;;;;;;;5.32;70.75;98038.44;10586101;28;20282;-71
2023/03/07 10:17:24;;;;;;;6.72;6.18;;;;;;;5.27;70.74;98036.03;10584413;28;20044;-70
2023/03/07 10:22:37;;;;;;;6.70;6.13;;;;;;;5.49;71.08;98024.66;10565789;28;20455;-71
2023/03/07 10:27:39;;;;;;;5.95;5.45;;;;;;;5.47;70.58;98027.34;10583832;28;20043;-71
2023/03/07 10:32:59;;;;;;;6.13;5.57;;;;;;;5.48;71.16;98026.44;10584491;28;20044;-70
2023/03/07 10:38:13;;;;;;;9.70;7.75;;;;;;;5.75;68.60;98021.78;10587696;27;20121;-70
2023/03/07 10:43:24;;;;;;;7.15;6.55;;;;;;;6.04;68.65;98009.22;10625753;27;20549;-71
2023/03/07 10:48:26;;;;;;;6.85;5.97;;;;;;;6.18;67.09;98004.22;10626283;27;20066;-71
2023/03/07 10:53:33;;;;;;;6.30;5.70;;;;;;;6.53;65.92;97996.50;10625238;27;20035;-70
2023/03/07 10:58:35;;;;;;;6.10;5.60;;;;;;;6.67;64.32;97993.22;10626911;27;20043;-70
2023/03/07 11:03:46;;;;;;;6.10;5.57;;;;;;;6.42;63.75;97976.16;10625050;27;20035;-70
2023/03/07 11:08:55;;;;;;;6.35;5.85;;;;;;;6.58;63.45;97958.81;10624706;27;20043;-71
2023/03/07 11:14:05;;;;;;;6.70;6.07;;;;;;;6.69;61.44;97962.69;10606196;27;20046;-71
2023/03/07 11:19:48;;;;;;;7.15;6.43;;;;;;;6.91;61.26;97950.25;10625060;27;20552;-71
2023/03/07 11:24:50;;;;;;;5.82;5.32;;;;;;;6.87;59.77;97950.47;10595934;27;20046;-71
2023/03/07 11:30:39;;;;;;;5.55;5.15;;;;;;;6.45;61.09;97939.44;10625225;27;20043;-71
2023/03/07 11:36:00;;;;;;;6.65;6.05;;;;;;;6.32;62.38;97951.38;10582126;27;20055;-71
2023/03/07 11:41:10;;;;;;;6.57;6.07;;;;;;;6.48;64.00;97944.53;10578626;28;20052;-71
2023/03/07 11:46:15;;;;;;;6.05;5.55;;;;;;;6.31;63.51;97934.88;10565201;28;20040;-71
2023/03/07 11:51:30;;;;;;;6.85;6.28;;;;;;;6.23;63.63;97933.56;10563777;28;20411;-71
2023/03/07 11:56:40;;;;;;;5.78;5.22;;;;;;;6.48;62.12;97926.25;10582650;28;20035;-71
2023/03/07 12:02:04;;;;;;;6.43;5.82;;;;;;;6.44;60.73;97923.88;10568835;28;20044;-72
2023/03/07 12:07:34;;;;;;;10.93;7.93;;;;;;;6.65;60.38;97921.97;10589555;28;20040;-72
2023/03/07 12:12:57;;;;;;;6.45;5.95;;;;;;;6.54;59.87;97905.06;10590077;28;20455;-72
2023/03/07 12:18:26;;;;;;;7.90;7.30;;;;;;;6.87;59.20;97906.91;10571146;28;20065;-71
2023/03/07 12:23:37;;;;;;;6.10;5.60;;;;;;;6.94;59.09;97894.38;10590460;28;20035;-72
2023/03/07 12:29:05;;;;;;;7.03;6.53;;;;;;;7.16;60.10;97888.88;10589124;28;20090;-71
2023/03/07 12:34:09;;;;;;;6.28;5.68;;;;;;;7.08;58.11;97890.16;10570408;28;20040;-72
2023/03/07 12:39:27;;;;;;;5.28;4.78;;;;;;;7.12;58.96;97888.19;10588443;28;20455;-71
2023/03/07 12:44:38;;;;;;;5.78;5.28;;;;;;;7.03;59.02;97879.06;10589697;28;20488;-71
2023/03/07 12:50:18;;;;;;;6.38;5.88;;;;;;;6.95;56.89;97876.03;10588545;28;20153;-72
2023/03/07 12:55:28;;;;;;;6.13;5.53;;;;;;;7.02;56.74;97874.78;10376445;28;20122;-71
2023/03/07 13:00:34;;;;;;;6.03;5.43;;;;;;;6.95;57.09;97870.81;10376526;28;20069;-72
2023/03/07 13:05:37;;;;;;;6.88;6.22;;;;;;;6.91;56.94;97865.84;10377436;28;20095;-71
2023/03/07 13:10:39;;;;;;;6.30;5.80;;;;;;;6.97;57.55;97868.94;10376143;28;20063;-72
2023/03/07 13:16:00;;;;;;;5.78;5.28;;;;;;;7.10;57.00;97873.56;10375050;28;20042;-72
2023/03/07 13:21:31;;;;;;;7.10;6.40;;;;;;;6.77;56.47;97875.22;10375659;28;20042;-72
2023/03/07 13:26:33;;;;;;;6.05;5.50;;;;;;;6.86;57.21;97863.41;10520510;28;20067;-72
2023/03/07 13:31:38;;;;;;;6.82;6.05;;;;;;;7.05;56.76;97855.50;10544924;28;20048;-72
2023/03/07 13:36:40;;;;;;;5.72;5.28;;;;;;;7.11;57.22;97857.78;10545165;28;20067;-72
2023/03/07 13:41:47;;;;;;;5.93;5.43;;;;;;;7.23;57.18;97857.16;10544363;28;20052;-72
2023/03/07 13:46:51;;;;;;;6.65;5.65;;;;;;;7.32;56.19;97846.19;10544153;28;20044;-72
2023/03/07 13:52:16;;;;;;;5.80;5.20;;;;;;;7.28;56.34;97839.44;10544815;28;20087;-71
2023/03/07 13:57:22;;;;;;;7.13;6.53;;;;;;;7.31;56.85;97856.75;10544265;28;20072;-72
2023/03/07 14:02:27;;;;;;;6.07;5.47;;;;;;;7.34;57.24;97848.72;10543332;28;20066;-71
2023/03/07 14:07:35;;;;;;;5.60;5.13;;;;;;;7.22;57.02;97849.41;10542516;28;20111;-72
2023/03/07 14:13:14;;;;;;;5.75;5.25;;;;;;;7.06;56.91;97851.97;10545061;28;20093;-72
2023/03/07 14:18:24;;;;;;;6.97;6.38;;;;;;;7.05;57.37;97845.06;10542647;28;20039;-73
2023/03/07 14:23:49;;;;;;;9.25;5.40;;;;;;;7.05;57.44;97842.44;10523783;28;20086;-73
2023/03/07 14:29:18;;;;;;;6.25;5.65;;;;;;;7.00;58.17;97840.06;10542791;28;20048;-72
2023/03/07 14:34:20;;;;;;;6.03;5.45;;;;;;;6.83;58.31;97846.16;10543183;28;20390;-72
2023/03/07 14:39:23;;;;;;;5.95;5.35;;;;;;;6.85;58.91;97853.06;10542442;28;20040;-73
2023/03/07 14:44:46;;;;;;;6.13;5.63;;;;;;;6.71;61.05;97845.94;10541727;28;20036;-73
2023/03/07 14:50:08;;;;;;;6.75;6.25;;;;;;;6.41;61.01;97841.34;10523255;28;20052;-73
2023/03/07 14:55:17;;;;;;;6.25;5.20;;;;;;;6.41;61.53;97836.13;10542388;28;20043;-73
2023/03/07 15:00:19;;;;;;;7.60;5.35;;;;;;;6.39;61.10;97839.75;10541325;28;20048;-72
2023/03/07 15:05:21;;;;;;;6.82;6.22;;;;;;;6.31;62.37;97840.13;10541560;28;20047;-72
2023/03/07 15:10:36;;;;;;;6.20;5.60;;;;;;;6.35;61.23;97831.22;10540682;28;20048;-73
2023/03/07 15:15:46;;;;;;;7.72;6.28;;;;;;;6.35;62.18;97828.59;10558188;22;20038;-72
2023/03/07 15:20:50;;;;;;;6.28;5.78;;;;;;;6.41;58.96;97825.69;10564671;28;20062;-72
2023/03/07 15:26:04;;;;;;;5.03;4.53;;;;;;;6.42;60.18;97823.91;10583539;28;20518;-72
2023/03/07 15:31:07;;;;;;;6.93;6.28;;;;;;;6.52;58.91;97827.78;10564712;28;20492;-72
2023/03/07 15:36:12;;;;;;;6.30;5.70;;;;;;;6.51;57.89;97832.16;10582247;28;20040;-72
2023/03/07 15:41:56;;;;;;;6.32;4.45;;;;;;;6.50;57.34;97830.44;10583824;28;20072;-72
2023/03/07 15:47:05;;;;;;;4.70;4.30;;;;;;;6.32;57.96;97833.97;10397315;28;20053;-72
2023/03/07 15:52:20;;;;;;;5.15;4.65;;;;;;;6.30;57.55;97833.22;10411567;28;20045;-72
2023/03/07 15:57:30;;;;;;;7.50;4.60;;;;;;;6.32;57.26;97829.59;10411684;28;20491;-72
2023/03/07 16:02:31;;;;;;;4.53;4.13;;;;;;;6.28;56.95;97835.03;10412356;28;20057;-73
2023/03/07 16:07:33;;;;;;;4.43;4.05;;;;;;;6.30;56.61;97834.06;10411432;28;20108;-72
2023/03/07 16:12:44;;;;;;;5.95;3.75;;;;;;;6.30;56.88;97838.44;10411094;28;20053;-72
2023/03/07 16:17:51;;;;;;;5.35;4.85;;;;;;;6.29;56.21;97826.31;10395056;28;20458;-72
2023/03/07 16:22:52;;;;;;;3.63;3.33;;;;;;;6.27;56.43;97828.16;10532889;28;20075;-73
2023/03/07 16:27:57;;;;;;;4.47;4.07;;;;;;;6.20;56.57;97832.84;10582371;28;20032;-72
2023/03/07 16:32:59;;;;;;;4.90;4.50;;;;;;;6.12;56.93;97836.72;10563704;28;20051;-72
2023/03/07 16:38:00;;;;;;;5.22;4.05;;;;;;;6.04;57.05;97843.16;10582227;28;20040;-73
2023/03/07 16:43:02;;;;;;;4.05;3.65;;;;;;;6.12;57.43;97855.84;10581745;28;20040;-72
2023/03/07 16:48:04;;;;;;;6.05;5.45;;;;;;;6.05;57.74;97865.69;10586135;28;20194;-72
2023/03/07 16:53:06;;;;;;;9.57;8.77;;;;;;;6.15;56.72;97897.41;10588741;28;20490;-72
2023/03/07 16:58:33;;;;;;;5.10;4.60;;;;;;;4.89;72.88;97910.06;10589384;28;20036;-73
2023/03/07 17:03:35;;;;;;;5.75;5.20;;;;;;;3.98;81.90;97920.69;10589234;28;20043;-73
2023/03/07 17:08:37;;;;;;;5.40;4.90;;;;;;;3.09;90.95;97935.28;10588443;28;20035;-73
2023/03/07 17:13:39;;;;;;;4.57;4.18;;;;;;;2.90;92.95;97951.50;10588821;28;20463;-73
2023/03/07 17:18:41;;;;;;;2.50;2.30;;;;;;;2.46;95.29;97961.59;10587568;28;20083;-72
2023/03/07 17:23:43;;;;;;;1.85;1.70;;;;;;;2.20;97.51;97977.97;10571033;28;20050;-73
2023/03/07 17:28:46;;;;;;;4.15;3.85;;;;;;;1.90;100.00;97990.13;10588292;28;20050;-73
2023/03/07 17:33:50;;;;;;;3.58;3.13;;;;;;;1.75;100.00;98008.72;10588680;28;20040;-73
2023/03/07 17:38:52;;;;;;;4.13;3.80;;;;;;;1.52;100.00;98017.97;10587854;28;20114;-73
2023/03/07 17:43:54;;;;;;;3.70;3.40;;;;;;;1.19;100.00;98024.91;10588528;28;20043;-74
2023/03/07 17:48:56;;;;;;;2.70;2.50;;;;;;;1.13;100.00;98029.41;10588590;28;20032;-74
2023/03/07 17:53:58;;;;;;;2.33;2.13;;;;;;;0.95;100.00;98028.97;10586466;28;20047;-73
2023/03/07 17:59:03;;;;;;;2.33;2.20;;;;;;;0.98;100.00;98028.91;10586459;28;20139;-73
2023/03/07 18:04:05;;;;;;;6.88;2.33;;;;;;;1.06;100.00;98026.09;10568751;28;20489;-69
2023/03/07 18:09:08;;;;;;;2.00;1.90;;;;;;;1.00;100.00;98041.78;10568128;28;20501;-70
2023/03/07 18:14:11;;;;;;;2.80;1.83;;;;;;;1.04;100.00;98035.66;10585788;28;20047;-73
2023/03/07 18:19:13;;;;;;;1.77;1.67;;;;;;;1.18;100.00;98030.13;10567440;28;20047;-72
2023/03/07 18:24:28;;;;;;;4.05;2.20;;;;;;;0.98;100.00;98031.50;10585823;28;20113;-72
2023/03/07 18:29:30;;;;;;;2.20;2.00;;;;;;;0.97;100.00;98039.28;10585270;28;20400;-71
2023/03/07 18:34:34;;;;;;;4.07;2.20;;;;;;;1.16;100.00;98035.34;10584669;28;20118;-73
2023/03/07 18:39:36;;;;;;;2.15;1.95;;;;;;;0.93;100.00;98046.28;10566403;28;20447;-73
2023/03/07 18:44:39;;;;;;;2.40;2.10;;;;;;;0.90;100.00;98046.34;10567009;28;20032;-72
2023/03/07 18:49:41;;;;;;;3.28;2.97;;;;;;;1.13;100.00;98053.53;10584666;28;20089;-71
2023/03/07 18:54:43;;;;;;;4.40;3.70;;;;;;;1.44;100.00;98053.56;10584425;28;20119;-72
2023/03/07 18:59:45;;;;;;;3.13;2.30;;;;;;;1.39;100.00;98042.50;10583901;28;20040;-71
2023/03/07 19:04:47;;;;;;;2.42;1.35;;;;;;;1.60;100.00;98055.78;10583881;28;20465;-73
2023/03/07 19:09:52;;;;;;;2.17;1.95;;;;;;;1.55;100.00;98047.25;10584000;28;20043;-72
2023/03/07 19:14:54;;;;;;;8.63;8.02;;;;;;;1.36;100.00;98052.94;10565914;28;20036;-73
2023/03/07 19:19:58;;;;;;;3.55;3.25;;;;;;;1.24;100.00;98063.63;10565463;28;20051;-72
2023/03/07 19:25:00;;;;;;;1.73;1.58;;;;;;;1.49;100.00;98058.63;10584136;28;20040;-73
2023/03/07 19:30:02;;;;;;;2.17;1.98;;;;;;;1.38;100.00;98061.53;10583200;28;20416;-73
2023/03/07 19:35:04;;;;;;;2.78;2.55;;;;;;;1.33;100.00;98071.16;10566307;28;20052;-71
2023/03/07 19:40:07;;;;;;;3.75;2.50;;;;;;;1.38;100.00;98060.69;10582485;28;20036;-71
2023/03/07 19:45:09;;;;;;;3.38;2.28;;;;;;;1.27;100.00;98055.75;10582979;28;20370;-72
2023/03/07 19:50:11;;;;;;;4.20;3.70;;;;;;;1.09;100.00;98064.00;10582796;28;20070;-73
2023/03/07 19:55:13;;;;;;;4.78;3.80;;;;;;;1.05;100.00;98058.06;10582827;28;20040;-72
2023/03/07 20:00:15;;;;;;;4.45;4.05;;;;;;;1.05;100.00;98052.03;10581977;28;20040;-73
2023/03/07 20:05:20;;;;;;;5.32;4.25;;;;;;;1.05;100.00;98046.84;10582002;28;20115;-72
2023/03/07 20:10:26;;;;;;;4.65;4.22;;;;;;;1.04;100.00;98048.59;10582023;28;20378;-73
2023/03/07 20:15:33;;;;;;;4.75;4.28;;;;;;;1.15;100.00;98053.47;10582090;28;20399;-73
2023/03/07 20:20:38;;;;;;;5.33;4.33;;;;;;;1.05;100.00;98062.38;10563285;28;20043;-73
2023/03/07 20:25:42;;;;;;;7.50;4.82;;;;;;;1.27;100.00;98055.75;10588613;28;20393;-72
2023/03/07 20:30:45;;;;;;;4.50;3.75;;;;;;;1.10;100.00;98071.72;10568856;28;20362;-71
2023/03/07 20:36:02;;;;;;;6.00;4.22;;;;;;;1.14;100.00;98070.75;10551893;28;20043;-72
2023/03/07 20:41:12;;;;;;;4.35;3.67;;;;;;;1.12;100.00;98076.88;10552401;28;20070;-72
2023/03/07 20:46:17;;;;;;;5.13;4.63;;;;;;;1.02;100.00;98068.50;10571022;28;20497;-73
2023/03/07 20:51:22;;;;;;;4.90;4.22;;;;;;;1.30;100.00;98080.72;10572270;28;20101;-72
2023/03/07 20:56:28;;;;;;;4.28;3.88;;;;;;;1.00;100.00;98091.78;10553857;28;20043;-72
2023/03/07 21:01:34;;;;;;;3.85;3.40;;;;;;;1.06;100.00;98089.94;10571672;28;20051;-73
2023/03/07 21:06:42;;;;;;;4.60;3.80;;;;;;;0.90;100.00;98095.50;10569722;28;20093;-72
2023/03/07 21:11:48;;;;;;;4.32;3.53;;;;;;;0.82;100.00;98097.41;10554138;28;20101;-73
2023/03/07 21:16:52;;;;;;;4.78;2.70;;;;;;;0.96;100.00;98104.84;10581479;22;20066;-72
2023/03/07 21:21:53;;;;;;;3.95;3.55;;;;;;;0.89;100.00;98109.34;10588893;28;20042;-73
2023/03/07 21:26:57;;;;;;;3.05;2.75;;;;;;;0.83;100.00;98109.47;10571691;28;20379;-71
2023/03/07 21:31:58;;;;;;;3.58;3.28;;;;;;;0.73;100.00;98114.00;10589611;28;20051;-73
2023/03/07 21:37:00;;;;;;;4.38;3.72;;;;;;;0.80;100.00;98119.00;10552511;28;20040;-72
2023/03/07 21:42:02;;;;;;;4.00;3.58;;;;;;;0.70;100.00;98123.56;10589219;28;20048;-74
2023/03/07 21:47:04;;;;;;;4.28;3.88;;;;;;;0.65;100.00;98122.81;10586335;28;20061;-73
2023/03/07 21:52:06;;;;;;;5.05;4.65;;;;;;;0.63;100.00;98127.19;10569422;28;20063;-72
2023/03/07 21:57:07;;;;;;;4.35;4.00;;;;;;;0.62;100.00;98128.03;10568971;28;20492;-72
2023/03/07 22:02:10;;;;;;;3.55;3.25;;;;;;;0.69;100.00;98137.38;10585389;28;20089;-72
2023/03/07 22:07:13;;;;;;;4.22;3.83;;;;;;;0.55;100.00;98154.94;10586080;28;20059;-72
2023/03/07 22:12:15;;;;;;;3.47;3.17;;;;;;;0.52;100.00;98153.25;10585505;28;20050;-72
2023/03/07 22:17:18;;;;;;;4.28;3.88;;;;;;;0.55;100.00;98160.09;10568709;28;20047;-73
2023/03/07 22:22:20;;;;;;;4.35;3.95;;;;;;;0.66;100.00;98158.97;10584427;28;20070;-72
2023/03/07 22:27:21;;;;;;;4.10;3.75;;;;;;;0.68;100.00;98151.19;10585059;28;20050;-71
2023/03/07 22:32:23;;;;;;;4.40;4.00;;;;;;;0.75;100.00;98160.50;10566733;28;20044;-71
2023/03/07 22:37:25;;;;;;;4.32;3.97;;;;;;;0.82;100.00;98179.34;10586853;28;20422;-72
2023/03/07 22:42:27;;;;;;;4.82;4.43;;;;;;;0.73;100.00;98180.38;10583549;28;20066;-72
2023/03/07 22:47:30;;;;;;;5.38;4.90;;;;;;;0.63;100.00;98184.06;10584050;28;20047;-72
2023/03/07 22:52:31;;;;;;;6.07;5.57;;;;;;;0.56;100.00;98193.66;10584338;28;20118;-72
2023/03/07 22:57:33;;;;;;;6.85;6.18;;;;;;;0.52;100.00;98176.53;10584164;28;20481;-72
2023/03/07 23:02:34;;;;;;;7.78;7.03;;;;;;;0.61;100.00;98185.81;10584082;28;20047;-72
2023/03/07 23:07:36;;;;;;;7.53;6.80;;;;;;;0.65;100.00;98177.97;10565749;28;20043;-72
2023/03/07 23:12:38;;;;;;;7.32;6.63;;;;;;;0.55;100.00;98189.38;10569068;28;20044;-72
2023/03/07 23:17:39;;;;;;;9.65;8.85;;;;;;;0.49;100.00;98189.53;10582690;28;20035;-71
2023/03/07 23:22:41;;;;;;;11.32;10.43;;;;;;;0.72;100.00;98204.56;10583644;28;20039;-71
2023/03/07 23:27:43;;;;;;;11.73;10.73;;;;;;;0.47;100.00;98215.41;10582584;28;20096;-73
2023/03/07 23:32:45;;;;;;;11.35;10.35;;;;;;;0.52;100.00;98230.81;10581900;28;20043;-74
2023/03/07 23:37:47;;;;;;;7.47;6.88;;;;;;;0.25;100.00;98235.63;10582322;28;20104;-74
2023/03/07 23:42:48;;;;;;;8.45;7.65;;;;;;;0.22;100.00;98237.44;10583147;28;20492;-74